Time;durP1;ratioP1;P1;durP2;ratioP2;P2;SDS_P1;SDS_P2;PMS_P1;PMS_P2;Temp;Humidity;BMP_temperature;BMP_pressure;BME280_temperature;BME280_humidity;BME280_pressure;Samples;Min_cycle;Max_cycle;Signal;HPM_P1;HPM_P2
2022/07/31 00:05:06;;;;;;;0.75;0.50;;;14.60;92.40;;;;;;21117026;28;20032;-60
2022/07/31 00:15:09;;;;;;;1.85;0.50;;;14.40;92.50;;;;;;21115575;28;20492;-60
2022/07/31 00:25:18;;;;;;;0.57;0.43;;;14.30;93.10;;;;;;21111491;28;20419;-60
2022/07/31 00:35:22;;;;;;;0.50;0.43;;;14.10;93.20;;;;;;21086494;28;21474;-60
2022/07/31 00:45:24;;;;;;;0.60;0.43;;;14.10;92.10;;;;;;21088567;28;21317;-59
2022/07/31 00:55:26;;;;;;;1.27;0.60;;;14.20;92.10;;;;;;21092095;28;20032;-59
2022/07/31 01:05:29;;;;;;;1.05;0.55;;;14.20;92.10;;;;;;21086703;28;20104;-59
2022/07/31 01:15:33;;;;;;;0.63;0.57;;;14.10;92.20;;;;;;21076919;28;20096;-59
2022/07/31 01:25:56;;;;;;;0.70;0.60;;;14.00;92.40;;;;;;21090814;28;20032;-59
2022/07/31 01:36:16;;;;;;;0.55;0.43;;;14.10;92.10;;;;;;21086661;28;20040;-59
2022/07/31 01:46:20;;;;;;;1.98;0.35;;;14.40;91.60;;;;;;21089597;28;20044;-58
2022/07/31 01:56:24;;;;;;;1.38;0.63;;;14.50;91.20;;;;;;21078598;28;20024;-58
2022/07/31 02:06:28;;;;;;;1.70;0.60;;;14.40;91.30;;;;;;21092302;28;20032;-58
2022/07/31 02:16:31;;;;;;;1.92;0.60;;;14.50;91.20;;;;;;21094832;28;20100;-60
2022/07/31 02:26:41;;;;;;;1.00;0.63;;;14.50;91.10;;;;;;21092747;28;20032;-59
2022/07/31 02:36:46;;;;;;;0.65;0.60;;;14.40;91.20;;;;;;21103394;28;20358;-60
2022/07/31 02:46:49;;;;;;;1.60;0.50;;;14.30;91.90;;;;;;21089306;28;20396;-59
2022/07/31 02:56:52;;;;;;;1.30;0.70;;;14.20;92.20;;;;;;21103871;28;20522;-60
2022/07/31 03:06:55;;;;;;;1.08;0.70;;;14.30;92.00;;;;;;21090264;28;20096;-58
2022/07/31 03:16:58;;;;;;;1.10;0.70;;;14.30;91.90;;;;;;21096589;28;20433;-58
2022/07/31 03:27:00;;;;;;;1.75;0.65;;;13.90;93.70;;;;;;21106078;28;20040;-59
2022/07/31 03:37:04;;;;;;;0.65;0.55;;;13.80;94.00;;;;;;21093636;28;20052;-58
2022/07/31 03:47:07;;;;;;;0.73;0.70;;;13.90;93.10;;;;;;21080362;28;20036;-59
2022/07/31 03:57:10;;;;;;;0.85;0.60;;;13.60;94.00;;;;;;21096153;28;20452;-59
2022/07/31 04:07:15;;;;;;;1.48;0.82;;;13.50;94.40;;;;;;21055170;28;20039;-58
2022/07/31 04:17:18;;;;;;;1.35;0.70;;;13.50;95.00;;;;;;21102004;28;20032;-60
2022/07/31 04:27:21;;;;;;;0.98;0.70;;;13.40;95.20;;;;;;21081745;28;20092;-60
2022/07/31 04:37:25;;;;;;;1.20;0.75;;;13.30;95.40;;;;;;21081054;28;20877;-60
2022/07/31 04:47:28;;;;;;;2.42;0.70;;;13.40;96.60;;;;;;21089532;28;20032;-60
2022/07/31 04:57:30;;;;;;;1.15;0.63;;;13.60;95.90;;;;;;21074718;28;20384;-59
2022/07/31 05:07:33;;;;;;;0.75;0.75;;;13.90;95.10;;;;;;21101869;28;20076;-59
2022/07/31 05:17:40;;;;;;;0.50;0.50;;;14.00;95.10;;;;;;21081597;28;20073;-60
2022/07/31 05:28:01;;;;;;;0.98;0.70;;;14.30;94.40;;;;;;21096857;28;20392;-59
2022/07/31 05:38:05;;;;;;;2.17;0.60;;;14.40;94.70;;;;;;21085590;28;20047;-58
2022/07/31 05:48:34;;;;;;;1.23;0.65;;;14.70;93.80;;;;;;21103244;28;20459;-59
2022/07/31 05:58:37;;;;;;;1.13;0.70;;;15.20;93.30;;;;;;21089125;28;20407;-59
2022/07/31 06:08:40;;;;;;;1.30;0.70;;;15.40;91.90;;;;;;21072829;28;20031;-59
2022/07/31 06:18:45;;;;;;;1.00;0.65;;;15.80;92.70;;;;;;21086946;28;20377;-60
2022/07/31 06:28:47;;;;;;;1.27;0.80;;;16.40;90.00;;;;;;21097739;28;20403;-60
2022/07/31 06:38:51;;;;;;;1.45;0.63;;;18.40;85.00;;;;;;21098133;28;20082;-63
2022/07/31 06:49:02;;;;;;;1.10;0.50;;;21.70;75.50;;;;;;21097579;28;20032;-61
2022/07/31 06:59:06;;;;;;;0.60;0.60;;;23.10;70.70;;;;;;21102382;28;20032;-62
2022/07/31 07:09:08;;;;;;;2.22;0.80;;;23.90;68.10;;;;;;21099844;28;20092;-62
2022/07/31 07:19:11;;;;;;;0.80;0.65;;;23.90;67.10;;;;;;21101043;28;20124;-58
2022/07/31 07:29:13;;;;;;;1.58;0.70;;;23.90;66.20;;;;;;21092055;28;20431;-57
2022/07/31 07:39:17;;;;;;;0.60;0.60;;;23.80;66.80;;;;;;21099296;28;20047;-58
2022/07/31 07:49:20;;;;;;;0.80;0.60;;;24.10;67.30;;;;;;21074720;28;20031;-62
2022/07/31 07:59:49;;;;;;;0.75;0.63;;;24.90;68.60;;;;;;21106717;28;20054;-58
2022/07/31 08:10:11;;;;;;;1.83;0.60;;;26.00;65.20;;;;;;21101073;28;20061;-58
2022/07/31 08:20:39;;;;;;;0.73;0.60;;;25.70;63.60;;;;;;21100559;28;20112;-58
2022/07/31 08:30:42;;;;;;;0.90;0.60;;;26.10;67.40;;;;;;21083272;28;20055;-57
2022/07/31 08:40:48;;;;;;;0.60;0.50;;;26.90;65.20;;;;;;21075589;28;20582;-58
2022/07/31 08:50:52;;;;;;;0.70;0.60;;;27.20;61.30;;;;;;21090951;28;20048;-61
2022/07/31 09:01:14;;;;;;;3.75;0.88;;;27.20;61.30;;;;;;21077134;28;20069;-58
2022/07/31 09:11:17;;;;;;;0.80;0.60;;;27.70;64.70;;;;;;21084557;28;20032;-58
2022/07/31 09:21:44;;;;;;;1.50;0.93;;;27.50;62.70;;;;;;21092208;28;20108;-59
2022/07/31 09:31:46;;;;;;;0.85;0.60;;;27.70;60.80;;;;;;21086226;28;20416;-59
2022/07/31 09:42:10;;;;;;;0.75;0.60;;;27.60;63.80;;;;;;21078447;28;20044;-58
2022/07/31 09:52:34;;;;;;;1.23;0.80;;;27.90;58.70;;;;;;21088314;28;20032;-59
2022/07/31 10:02:38;;;;;;;1.02;0.70;;;28.10;61.00;;;;;;21079851;28;20400;-58
2022/07/31 10:12:45;;;;;;;0.73;0.73;;;28.20;61.50;;;;;;21089296;28;20044;-59
2022/07/31 10:22:56;;;;;;;1.38;0.90;;;28.60;62.50;;;;;;21093760;28;20044;-59
2022/07/31 10:33:07;;;;;;;2.53;0.90;;;29.10;61.40;;;;;;21115243;28;20048;-59
2022/07/31 10:43:50;;;;;;;1.08;0.95;;;29.70;63.50;;;;;;21113584;28;20172;-58
2022/07/31 10:54:22;;;;;;;1.15;0.93;;;29.80;61.30;;;;;;21103533;28;20044;-60
2022/07/31 11:04:48;;;;;;;1.03;0.93;;;29.80;59.80;;;;;;21096094;28;20055;-58
2022/07/31 11:15:23;;;;;;;2.60;1.20;;;30.10;63.00;;;;;;21115432;28;20040;-59
2022/07/31 11:26:06;;;;;;;2.85;1.13;;;29.80;61.70;;;;;;20779667;28;20690;-58
2022/07/31 11:36:09;;;;;;;1.42;0.90;;;29.90;62.40;;;;;;20775338;28;20069;-58
2022/07/31 11:46:23;;;;;;;0.90;0.90;;;29.80;66.10;;;;;;20759025;28;20053;-58
2022/07/31 11:56:26;;;;;;;1.17;0.85;;;30.20;63.40;;;;;;21082603;28;20047;-58
2022/07/31 12:06:29;;;;;;;1.45;1.05;;;30.30;62.00;;;;;;21088292;28;20113;-58
2022/07/31 12:16:40;;;;;;;2.38;1.10;;;30.60;65.80;;;;;;21114887;28;20577;-59
2022/07/31 12:26:48;;;;;;;2.80;0.98;;;31.10;61.30;;;;;;21089980;28;20036;-60
2022/07/31 12:37:11;;;;;;;2.80;0.93;;;31.10;61.40;;;;;;21107371;28;20052;-57
2022/07/31 12:47:25;;;;;;;1.55;1.00;;;30.30;60.40;;;;;;21095546;28;20497;-57
2022/07/31 12:57:28;;;;;;;1.42;1.05;;;28.80;65.60;;;;;;21101147;28;20104;-57
2022/07/31 13:07:31;;;;;;;1.10;1.00;;;29.50;61.60;;;;;;21103915;28;20032;-57
2022/07/31 13:17:34;;;;;;;1.63;1.27;;;29.60;61.60;;;;;;21094574;28;20044;-56
2022/07/31 13:27:36;;;;;;;2.60;1.40;;;27.80;64.40;;;;;;21095754;28;20072;-56
2022/07/31 13:37:41;;;;;;;5.28;1.85;;;26.50;69.00;;;;;;21090345;28;20056;-56
2022/07/31 13:47:45;;;;;;;3.28;1.10;;;27.50;68.80;;;;;;21102334;28;20093;-55
2022/07/31 13:57:47;;;;;;;6.35;1.65;;;28.20;67.00;;;;;;21094440;28;20447;-56
2022/07/31 14:07:50;;;;;;;1.73;1.38;;;29.00;65.30;;;;;;21101246;28;20562;-56
2022/07/31 14:17:53;;;;;;;2.83;1.63;;;29.10;64.10;;;;;;21095079;28;20496;-56
2022/07/31 14:27:55;;;;;;;4.47;1.60;;;28.60;65.30;;;;;;21105438;28;20088;-56
2022/07/31 14:37:58;;;;;;;3.45;1.90;;;27.60;67.20;;;;;;21023899;28;20082;-56
2022/07/31 14:48:01;;;;;;;2.13;1.70;;;26.70;68.60;;;;;;21027025;28;20044;-56
2022/07/31 14:58:04;;;;;;;3.50;2.25;;;27.20;67.80;;;;;;21010707;28;20393;-59
2022/07/31 15:08:06;;;;;;;2.60;2.10;;;29.10;64.20;;;;;;21023391;28;20168;-59
2022/07/31 15:18:09;;;;;;;3.30;2.25;;;30.20;64.20;;;;;;21015354;28;20463;-56
2022/07/31 15:28:14;;;;;;;3.17;2.80;;;31.50;60.80;;;;;;21023677;28;20606;-56
2022/07/31 15:38:17;;;;;;;3.13;2.83;;;31.70;59.70;;;;;;21097603;28;20499;-56
2022/07/31 15:48:20;;;;;;;3.25;2.45;;;31.40;60.70;;;;;;21112763;28;20549;-56
2022/07/31 15:58:22;;;;;;;2.80;2.60;;;31.60;60.50;;;;;;21099507;28;20032;-56
2022/07/31 16:08:25;;;;;;;4.30;2.50;;;31.50;59.30;;;;;;21112420;28;20110;-56
2022/07/31 16:18:28;;;;;;;3.60;2.00;;;30.10;61.80;;;;;;21098854;28;20554;-56
2022/07/31 16:28:30;;;;;;;1.88;1.75;;;27.80;65.20;;;;;;21093394;28;20043;-55
2022/07/31 16:38:33;;;;;;;3.88;1.92;;;27.60;66.50;;;;;;21096940;28;20062;-54
2022/07/31 16:48:37;;;;;;;8.07;1.88;;;25.60;68.90;;;;;;21101843;28;20039;-49
2022/07/31 16:58:39;;;;;;;4.15;1.83;;;23.80;72.00;;;;;;21107296;28;20071;-52
2022/07/31 17:08:42;;;;;;;2.90;1.58;;;22.40;75.90;;;;;;21087444;28;20101;-55
2022/07/31 17:18:45;;;;;;;1.95;1.73;;;21.50;79.00;;;;;;21111516;28;20412;-55
2022/07/31 17:28:48;;;;;;;2.58;1.92;;;20.80;81.10;;;;;;21078852;28;20089;-55
2022/07/31 17:38:50;;;;;;;1.58;1.48;;;20.30;85.80;;;;;;21107759;28;20048;-54
2022/07/31 17:48:54;;;;;;;3.75;2.33;;;19.90;86.00;;;;;;21089004;28;20032;-56
2022/07/31 17:59:03;;;;;;;4.45;1.90;;;19.50;88.50;;;;;;21095711;28;20035;-55
2022/07/31 18:09:05;;;;;;;2.67;2.25;;;19.00;90.00;;;;;;21089643;28;20032;-54
2022/07/31 18:19:07;;;;;;;7.03;3.50;;;18.70;90.70;;;;;;21094871;28;20546;-55
2022/07/31 18:29:10;;;;;;;12.23;4.80;;;18.40;91.40;;;;;;21096526;28;20032;-54
2022/07/31 18:39:13;;;;;;;4.63;3.00;;;18.10;92.10;;;;;;21046805;28;20044;-54
2022/07/31 18:49:19;;;;;;;2.17;1.73;;;17.90;92.50;;;;;;21050949;28;20089;-53
2022/07/31 18:59:22;;;;;;;3.53;2.40;;;17.60;92.90;;;;;;21057272;28;20036;-55
2022/07/31 19:09:24;;;;;;;5.20;2.38;;;17.50;92.70;;;;;;21057149;28;20036;-56
2022/07/31 19:19:27;;;;;;;5.47;3.97;;;17.60;92.70;;;;;;21056259;28;20036;-55
2022/07/31 19:29:30;;;;;;;2.45;1.92;;;17.40;93.10;;;;;;21054063;28;20036;-55
2022/07/31 19:39:32;;;;;;;5.72;4.43;;;17.20;94.20;;;;;;21050361;28;20048;-54
2022/07/31 19:49:36;;;;;;;3.22;2.92;;;16.90;94.60;;;;;;21051328;28;20450;-59
2022/07/31 19:59:38;;;;;;;3.47;2.70;;;16.90;94.60;;;;;;21052234;28;20035;-52
2022/07/31 20:09:41;;;;;;;10.18;4.75;;;16.90;94.90;;;;;;21046819;28;20037;-55
2022/07/31 20:19:43;;;;;;;2.90;2.53;;;16.80;95.50;;;;;;21051663;28;20039;-54
2022/07/31 20:29:46;;;;;;;4.40;2.40;;;16.60;95.70;;;;;;21050588;28;20032;-54
2022/07/31 20:39:48;;;;;;;3.42;2.63;;;16.40;96.30;;;;;;21032826;28;20040;-55
2022/07/31 20:49:52;;;;;;;3.72;2.67;;;16.30;97.00;;;;;;21048958;28;20100;-54
2022/07/31 20:59:54;;;;;;;4.22;2.75;;;16.20;97.00;;;;;;21048036;28;20028;-54
2022/07/31 21:09:56;;;;;;;4.38;2.63;;;16.30;97.20;;;;;;21043414;28;20428;-54
2022/07/31 21:20:04;;;;;;;5.55;2.88;;;16.20;97.50;;;;;;21039057;28;20427;-56
2022/07/31 21:30:07;;;;;;;3.10;2.80;;;16.10;98.20;;;;;;21028571;28;20354;-51
2022/07/31 21:40:11;;;;;;;3.75;2.90;;;16.10;98.30;;;;;;21103661;28;20489;-55
2022/07/31 21:50:18;;;;;;;3.85;2.58;;;16.00;98.30;;;;;;21126220;28;20054;-54
2022/07/31 22:00:20;;;;;;;3.90;2.42;;;16.10;98.80;;;;;;21112930;28;20438;-60
2022/07/31 22:10:25;;;;;;;4.28;2.40;;;16.00;99.40;;;;;;21110152;28;20055;-55
2022/07/31 22:20:27;;;;;;;3.13;2.20;;;16.00;98.70;;;;;;21128149;28;20031;-55
2022/07/31 22:30:30;;;;;;;3.60;2.30;;;16.10;98.60;;;;;;21123216;28;20051;-55
2022/07/31 22:40:33;;;;;;;4.13;2.33;;;16.20;98.70;;;;;;21137924;28;20035;-52
2022/07/31 22:50:38;;;;;;;2.30;2.10;;;16.20;98.10;;;;;;21095534;28;20031;-56
2022/07/31 23:00:41;;;;;;;3.22;2.47;;;16.10;98.50;;;;;;21128264;28;20085;-54
2022/07/31 23:10:44;;;;;;;5.68;2.33;;;16.00;98.60;;;;;;21129663;28;20040;-55
2022/07/31 23:20:47;;;;;;;2.83;2.30;;;16.00;98.70;;;;;;21126549;28;20040;-55
2022/07/31 23:30:49;;;;;;;4.22;2.47;;;15.90;98.80;;;;;;21131271;28;20108;-61
2022/07/31 23:40:55;;;;;;;3.95;2.05;;;15.90;98.30;;;;;;21122903;28;20035;-54
2022/07/31 23:50:57;;;;;;;2.45;2.22;;;16.10;98.10;;;;;;21128937;28;20488;-54
